aviador You're here:

PMDY Decoded Metar

MIDWAY in MIDWAY ISLAND
Report Time2017-11-18 13:56:00
UTC Time2017-11-18 14:06:06
Flight Rules vfr VFR
Wind100° at 19 kt
W.Decomp.*RWY 06: 16.5 kt HW 9.5 kt RCW
W.Rank100° ranks 2
Current wind is above 100° avg. (10.2)
Visibility9999 m
Phenomena:N/A
Clouds:Few 037 Hf
Scattered 046 Hf
Expected CloudBase > 2,000 ft AGL from Temp-Dew spread
CeilingNone
Temp22°C (ISA +7)
Dew Point17°C (73% RH)
AAT17.5°C
QNH1019 hPa
Density Alt886 ft
Elevation13 ft
Report Wrong Elevation
Raw Report
METAR PMDY 181356Z AUTO 10019KT 10SM FEW037 SCT046 22/17 A3008 RMK
AO2 SLP186 T02220172=

Extra information for PMDY:More info

Metar Taf Metar & Taf Last 4 Metars F.Rules Stats Wind Profile Meteogram Temp Stats Airport Information Weather charts Add Link Nearby VenuesMetar ALERT Operation Metar Decoded Social comments